Weather History for KULM - October, 2012

Change the Weather History Date:

Monday, October 8, 2012

  Actual Average Record
Temperature  
Mean Temperature 54 °F -  
Max Temperature 69 °F 63 °F 87 °F (2010)
Min Temperature 39 °F 40 °F 14 °F (2000)
Degree Days  
Heating Degree Days 11    
Growing Degree Days 4 (Base 50)    
Moisture  
Dew Point 29 °F    
Average Humidity 42    
Maximum Humidity 61    
Minimum Humidity 18    
Precipitation  
Precipitation 0.00 in - - ()
Sea Level Pressure  
Sea Level Pressure 29.73 in    
Wind  
Wind Speed 11 mph (SW)    
Max Wind Speed 26 mph    
Max Gust Speed 38 mph    
Visibility 10 miles    
Events      
Averages and records for this station are not official NWS values.
T = Trace of Precipitation, MM = Missing Value Source: NWS Daily Summary

Daily Weather History Graph

Daily Weather History Graph

Search for Another Location

Airport or City:

Trip Planner

Search our weather history database for the weather conditions in past years. The results will help you decide how hot, cold, wet, or windy it might be!

Date:

Astronomy

Oct. 08, 2012 Rise Set
Actual Time 7:24 AM CDT 6:45 PM CDT
Civil Twilight 6:55 AM CDT 7:14 PM CDT
Nautical Twilight 6:22 AM CDT 7:47 PM CDT
Astronomical Twilight 5:48 AM CDT 8:21 PM CDT
Moon No Moon Rise 2:48 PM CDT (10/8)
Length of Visible Light 12h 18m
Length of Day
11h 20m
Last Quarter, 46% of the Moon is Illuminated
Oct 8
Last Quarter
Oct 15
New
Oct 21
First Quarter
Oct 29
Full
Nov 6
Last Quarter

Hourly Weather History & Observations

Time (CDT) Temp. Windchill Dew Point Humidity Pressure Visibility Wind Dir Wind Speed Gust Speed Precip Events Conditions
12:12 AM 42.8 °F 36.6 °F 19.4 °F 39% 29.86 in 10.0 mi SSW 11.5 mph - N/A   Clear
12:33 AM 42.8 °F 37.0 °F 21.2 °F 42% 29.85 in 10.0 mi SSW 10.4 mph - N/A   Clear
12:53 AM 42.8 °F 38.0 °F 21.2 °F 42% 29.85 in 10.0 mi SSW 8.1 mph - N/A   Clear
1:12 AM 42.8 °F 37.5 °F 21.2 °F 42% 29.85 in 10.0 mi SSW 9.2 mph - N/A   Clear
1:33 AM 42.8 °F 37.5 °F 21.2 °F 42% 29.85 in 10.0 mi SSW 9.2 mph - N/A   Clear
1:53 AM 42.8 °F 37.5 °F 23.0 °F 46% 29.84 in 10.0 mi SSW 9.2 mph - N/A   Clear
2:13 AM 41.0 °F 35.8 °F 23.0 °F 49% 29.84 in 10.0 mi SSW 8.1 mph - N/A   Clear
2:33 AM 41.0 °F 35.8 °F 24.8 °F 53% 29.84 in 10.0 mi SSW 8.1 mph - N/A   Clear
2:53 AM 41.0 °F 36.4 °F 24.8 °F 53% 29.83 in 10.0 mi SSW 6.9 mph - N/A   Clear
3:13 AM 41.0 °F 37.1 °F 24.8 °F 53% 29.82 in 10.0 mi SSW 5.8 mph - N/A   Clear
3:33 AM 39.2 °F 33.6 °F 24.8 °F 56% 29.82 in 10.0 mi SSW 8.1 mph - N/A   Clear
3:53 AM 39.2 °F 34.2 °F 24.8 °F 56% 29.81 in 10.0 mi SSW 6.9 mph - N/A   Clear
4:13 AM 39.2 °F 35.9 °F 24.8 °F 56% 29.81 in 10.0 mi SSW 4.6 mph - N/A   Clear
4:33 AM 39.2 °F 35.9 °F 24.8 °F 56% 29.81 in 10.0 mi South 4.6 mph - N/A   Clear
4:52 AM 39.2 °F 35.9 °F 26.6 °F 61% 29.80 in 10.0 mi South 4.6 mph - N/A   Clear
5:13 AM 39.2 °F 34.2 °F 26.6 °F 61% 29.79 in 10.0 mi South 6.9 mph - N/A   Clear
5:33 AM 41.0 °F 35.8 °F 26.6 °F 57% 29.79 in 10.0 mi South 8.1 mph - N/A   Scattered Clouds
5:52 AM 42.8 °F 37.5 °F 26.6 °F 53% 29.78 in 10.0 mi SSW 9.2 mph - N/A   Mostly Cloudy
6:13 AM 44.6 °F 40.2 °F 26.6 °F 49% 29.78 in 10.0 mi SSW 8.1 mph - N/A   Overcast
6:33 AM 44.6 °F 40.2 °F 26.6 °F 49% 29.77 in 10.0 mi South 8.1 mph - N/A   Overcast
6:52 AM 44.6 °F 39.2 °F 26.6 °F 49% 29.76 in 10.0 mi South 10.4 mph - N/A   Overcast
7:13 AM 44.6 °F 39.2 °F 26.6 °F 49% 29.76 in 10.0 mi South 10.4 mph - N/A   Overcast
7:33 AM 46.4 °F 42.4 °F 26.6 °F 46% 29.76 in 10.0 mi SSW 8.1 mph - N/A   Overcast
7:52 AM 46.4 °F 41.5 °F 26.6 °F 46% 29.75 in 10.0 mi SSW 10.4 mph - N/A   Overcast
8:13 AM 46.4 °F 41.9 °F 26.6 °F 46% 29.76 in 10.0 mi SSW 9.2 mph - N/A   Scattered Clouds
8:33 AM 46.4 °F 41.5 °F 26.6 °F 46% 29.75 in 10.0 mi SSW 10.4 mph - N/A   Scattered Clouds
8:52 AM 48.2 °F - 28.4 °F 46% 29.75 in 10.0 mi SSW 10.4 mph - N/A   Scattered Clouds
9:13 AM 48.2 °F - 28.4 °F 46% 29.75 in 10.0 mi SSW 10.4 mph - N/A   Scattered Clouds
9:33 AM 48.2 °F - 28.4 °F 46% 29.74 in 10.0 mi SSW 10.4 mph - N/A   Scattered Clouds
9:53 AM 50.0 °F - 28.4 °F 43% 29.74 in 10.0 mi SSW 11.5 mph - N/A   Scattered Clouds
10:13 AM 51.8 °F - 28.4 °F 41% 29.72 in 10.0 mi SSW 12.7 mph - N/A   Scattered Clouds
10:33 AM 53.6 °F - 28.4 °F 38% 29.71 in 10.0 mi SSW 13.8 mph - N/A   Clear
10:52 AM 53.6 °F - 28.4 °F 38% 29.71 in 10.0 mi SSW 15.0 mph - N/A   Scattered Clouds
11:13 AM 55.4 °F - 28.4 °F 36% 29.69 in 10.0 mi SSW 12.7 mph 20.7 mph N/A   Scattered Clouds
11:33 AM 55.4 °F - 28.4 °F 36% 29.69 in 10.0 mi SSW 13.8 mph 17.3 mph N/A   Scattered Clouds
11:53 AM 57.2 °F - 28.4 °F 33% 29.68 in 10.0 mi South 12.7 mph - N/A   Scattered Clouds
12:13 PM 59.0 °F - 28.4 °F 31% 29.67 in 10.0 mi SSW 13.8 mph - N/A   Scattered Clouds
12:33 PM 60.8 °F - 28.4 °F 29% 29.65 in 10.0 mi SSW 16.1 mph - N/A   Clear
12:53 PM 62.6 °F - 28.4 °F 27% 29.64 in 10.0 mi SSW 17.3 mph 21.9 mph N/A   Scattered Clouds
1:32 PM 62.6 °F - 28.4 °F 27% 29.63 in 10.0 mi SSW 12.7 mph 21.9 mph N/A   Clear
1:53 PM 62.6 °F - 28.4 °F 27% 29.62 in 10.0 mi SSW 12.7 mph 20.7 mph N/A   Scattered Clouds
2:13 PM 62.6 °F - 28.4 °F 27% 29.62 in 10.0 mi SSW 18.4 mph 21.9 mph N/A   Scattered Clouds
2:32 PM 64.4 °F - 26.6 °F 24% 29.61 in 10.0 mi SSW 20.7 mph 26.5 mph N/A   Scattered Clouds
2:53 PM 66.2 °F - 26.6 °F 23% 29.60 in 10.0 mi SW 21.9 mph 28.8 mph N/A   Scattered Clouds
3:13 PM 69.8 °F - 24.8 °F 18% 29.60 in 10.0 mi WSW 26.5 mph 38.0 mph N/A   Scattered Clouds
3:32 PM 69.8 °F - 24.8 °F 18% 29.60 in 10.0 mi WSW 21.9 mph 28.8 mph N/A   Scattered Clouds
3:53 PM 69.8 °F - 26.6 °F 20% 29.60 in 10.0 mi WSW 21.9 mph 32.2 mph N/A   Scattered Clouds
4:13 PM 69.8 °F - 28.4 °F 21% 29.61 in 10.0 mi West 21.9 mph 31.1 mph N/A   Scattered Clouds
4:33 PM 69.8 °F - 28.4 °F 21% 29.61 in 10.0 mi WSW 21.9 mph 27.6 mph N/A   Clear
5:12 PM 68.0 °F - 30.2 °F 24% 29.62 in 10.0 mi West 18.4 mph 27.6 mph N/A   Unknown
5:33 PM 68.0 °F - 37.4 °F 33% 29.63 in 10.0 mi West 21.9 mph 27.6 mph N/A   Scattered Clouds
5:53 PM 66.2 °F - 39.2 °F 37% 29.64 in 10.0 mi WNW 18.4 mph 25.3 mph N/A   Scattered Clouds
6:13 PM 64.4 °F - 39.2 °F 40% 29.65 in 10.0 mi WNW 17.3 mph - N/A   Scattered Clouds
7:13 PM 60.8 °F - 39.2 °F 45% 29.68 in 10.0 mi WNW 12.7 mph - N/A   Clear
7:33 PM 60.8 °F - 39.2 °F 45% 29.69 in 10.0 mi NW 17.3 mph 26.5 mph N/A   Clear
7:53 PM 59.0 °F - 39.2 °F 48% 29.71 in 10.0 mi NW 13.8 mph 19.6 mph N/A   Clear
8:13 PM 57.2 °F - 39.2 °F 51% 29.72 in 10.0 mi NW 12.7 mph 17.3 mph N/A   Clear
8:33 PM 59.0 °F - 37.4 °F 45% 29.72 in 10.0 mi NW 17.3 mph 21.9 mph N/A   Scattered Clouds
8:53 PM 57.2 °F - 37.4 °F 48% 29.73 in 10.0 mi NW 15.0 mph 20.7 mph N/A   Scattered Clouds
9:13 PM 57.2 °F - 37.4 °F 48% 29.75 in 10.0 mi NW 12.7 mph - N/A   Clear
9:33 PM 55.4 °F - 35.6 °F 47% 29.75 in 10.0 mi NW 10.4 mph 16.1 mph N/A   Clear
9:53 PM 55.4 °F - 35.6 °F 47% 29.76 in 10.0 mi NW 5.8 mph - N/A   Clear
10:13 PM 55.4 °F - 35.6 °F 47% 29.76 in 10.0 mi NW 5.8 mph - N/A   Clear
10:53 PM 51.8 °F - 35.6 °F 54% 29.76 in 10.0 mi Calm Calm - N/A   Clear
11:13 PM 51.8 °F - 35.6 °F 54% 29.76 in 10.0 mi Calm Calm - N/A   Clear
11:33 PM 51.8 °F - 35.6 °F 54% 29.76 in 10.0 mi Calm Calm - N/A   Clear
11:52 PM 51.8 °F - 35.6 °F 54% 29.77 in 10.0 mi SSW 3.5 mph - N/A   Scattered Clouds